Time;durP1;ratioP1;P1;durP2;ratioP2;P2;SDS_P1;SDS_P2;PMS_P1;PMS_P2;Temp;Humidity;BMP_temperature;BMP_pressure;BME280_temperature;BME280_humidity;BME280_pressure;Samples;Min_cycle;Max_cycle;Signal;HPM_P1;HPM_P2
2023/02/11 00:00:56;;;;;;;20.80;8.80;;;;;;;1.05;56.04;101864.80;108105;1239;72431;-68
2023/02/11 00:03:23;;;;;;;17.80;8.20;;;;;;;1.04;56.07;101861.71;108489;1241;60533;-66
2023/02/11 00:06:00;;;;;;;19.50;8.40;;;;;;;1.03;56.09;101859.30;108208;1240;61409;-66
2023/02/11 00:08:27;;;;;;;16.10;8.00;;;;;;;1.02;56.09;101859.32;108143;1242;65127;-67
2023/02/11 00:10:55;;;;;;;17.70;7.80;;;;;;;1.01;56.13;101860.71;108137;1239;71227;-66
2023/02/11 00:13:22;;;;;;;17.90;8.90;;;;;;;0.97;56.16;101859.91;108204;1241;73636;-67
2023/02/11 00:15:52;;;;;;;17.30;9.20;;;;;;;0.94;56.26;101853.57;108149;1240;60458;-64
2023/02/11 00:18:19;;;;;;;20.30;9.20;;;;;;;0.92;56.22;101856.55;108181;1238;60446;-65
2023/02/11 00:20:46;;;;;;;20.60;10.50;;;;;;;0.87;56.43;101849.54;108086;1243;74819;-66
2023/02/11 00:23:13;;;;;;;20.80;10.00;;;;;;;0.84;56.42;101848.03;108215;1238;71428;-66
2023/02/11 00:25:41;;;;;;;22.50;8.70;;;;;;;0.81;56.57;101842.90;108180;1238;73631;-65
2023/02/11 00:28:08;;;;;;;17.30;8.90;;;;;;;0.79;56.62;101845.02;108128;1241;60465;-66
2023/02/11 00:30:35;;;;;;;21.10;10.10;;;;;;;0.76;56.77;101844.70;108177;1241;61549;-66
2023/02/11 00:33:02;;;;;;;21.10;10.30;;;;;;;0.74;56.92;101848.88;108268;1238;74581;-65
2023/02/11 00:35:31;;;;;;;19.30;9.90;;;;;;;0.71;57.01;101847.38;108229;1238;70115;-65
2023/02/11 00:38:00;;;;;;;19.80;8.50;;;;;;;0.67;57.10;101847.44;108263;1241;73554;-66
2023/02/11 00:40:27;;;;;;;20.90;10.00;;;;;;;0.64;57.21;101851.79;108172;1238;60558;-65
2023/02/11 00:42:54;;;;;;;17.90;10.10;;;;;;;0.60;57.31;101847.88;108159;1238;61088;-65
2023/02/11 00:45:20;;;;;;;18.60;9.00;;;;;;;0.56;57.62;101852.09;108226;1238;73389;-66
2023/02/11 00:47:47;;;;;;;17.00;8.50;;;;;;;0.54;57.83;101853.32;108136;1241;70976;-66
2023/02/11 00:50:14;;;;;;;19.00;8.40;;;;;;;0.52;57.91;101846.43;108110;1238;73578;-66
2023/02/11 00:52:42;;;;;;;18.10;8.50;;;;;;;0.52;57.94;101846.44;108226;1238;60531;-66
2023/02/11 00:55:08;;;;;;;12.10;6.40;;;;;;;0.51;58.10;101842.14;108149;1240;60929;-67
2023/02/11 00:57:36;;;;;;;19.70;10.30;;;;;;;0.49;58.13;101843.89;108194;1238;75205;-66
2023/02/11 01:00:04;;;;;;;19.60;8.60;;;;;;;0.48;58.22;101843.23;108179;1239;70980;-66
2023/02/11 01:02:31;;;;;;;17.60;8.20;;;;;;;0.46;58.42;101836.69;108293;1238;72501;-66
2023/02/11 01:04:58;;;;;;;20.20;8.40;;;;;;;0.45;58.56;101839.63;108140;1238;60458;-65
2023/02/11 01:07:27;;;;;;;23.10;9.30;;;;;;;0.46;58.74;101839.27;108104;1243;61213;-67
2023/02/11 01:09:54;;;;;;;19.00;9.00;;;;;;;0.45;58.74;101835.84;108229;1238;74972;-65
2023/02/11 01:12:21;;;;;;;17.30;8.30;;;;;;;0.45;58.91;101836.88;108190;1241;70663;-64
2023/02/11 01:14:48;;;;;;;22.20;9.00;;;;;;;0.45;59.09;101834.45;108350;1242;73245;-66
2023/02/11 01:17:17;;;;;;;18.40;10.10;;;;;;;0.47;59.22;101829.94;108276;1241;60497;-66
2023/02/11 01:19:44;;;;;;;19.80;8.40;;;;;;;0.56;59.09;101832.07;108160;1241;61127;-66
2023/02/11 01:22:10;;;;;;;15.30;6.10;;;;;;;0.67;59.02;101829.13;108109;1239;73657;-67
2023/02/11 01:24:38;;;;;;;16.60;7.90;;;;;;;0.77;58.94;101827.93;108153;1242;71216;-67
2023/02/11 01:27:06;;;;;;;14.30;6.70;;;;;;;0.85;58.93;101827.27;108176;1239;73521;-65
2023/02/11 01:29:33;;;;;;;21.10;10.10;;;;;;;0.90;58.95;101829.45;108173;1241;60577;-63
2023/02/11 01:32:00;;;;;;;18.60;8.80;;;;;;;0.93;59.00;101830.27;107563;1241;61211;-65
2023/02/11 01:34:27;;;;;;;18.00;7.30;;;;;;;0.92;59.04;101832.87;107639;1243;74425;-64
2023/02/11 01:36:58;;;;;;;17.40;8.60;;;;;;;0.88;59.14;101830.67;107635;1243;71192;-64
2023/02/11 01:39:25;;;;;;;13.50;5.90;;;;;;;0.86;59.27;101833.48;108289;1238;73249;-65
2023/02/11 01:41:52;;;;;;;14.90;7.30;;;;;;;0.84;59.36;101831.79;108164;1238;60545;-65
2023/02/11 01:44:30;;;;;;;19.40;8.70;;;;;;;0.80;59.46;101831.86;108122;1238;61203;-66
2023/02/11 01:46:58;;;;;;;23.40;8.10;;;;;;;0.74;59.71;101826.77;108191;1239;74787;-65
2023/02/11 01:49:30;;;;;;;17.50;7.90;;;;;;;0.70;59.78;101825.45;108161;1238;70616;-66
2023/02/11 01:52:00;;;;;;;15.20;8.40;;;;;;;0.67;59.77;101830.85;108237;1243;71761;-67
2023/02/11 01:57:23;;;;;;;16.50;9.50;;;;;;;0.64;59.99;101836.42;108169;1241;60443;-65
2023/02/11 02:00:14;;;;;;;17.10;9.80;;;;;;;0.60;60.09;101834.92;108072;1242;75601;-64
2023/02/11 02:03:01;;;;;;;17.80;8.10;;;;;;;0.56;60.33;101829.98;108183;1239;62282;-65
2023/02/11 02:05:45;;;;;;;19.50;8.50;;;;;;;0.55;60.53;101822.40;108132;1242;64913;-66
2023/02/11 02:08:28;;;;;;;22.00;8.70;;;;;;;0.55;60.83;101820.33;108315;1242;60445;-65
2023/02/11 02:10:59;;;;;;;17.80;7.60;;;;;;;0.53;60.96;101825.52;108172;1240;60490;-64
2023/02/11 02:13:27;;;;;;;19.80;8.30;;;;;;;0.53;61.11;101822.60;107671;1238;74489;-66
2023/02/11 02:15:56;;;;;;;16.60;8.70;;;;;;;0.53;61.05;101820.54;108171;1242;70333;-68
2023/02/11 02:18:58;;;;;;;20.00;10.60;;;;;;;0.53;61.21;101822.07;107956;1244;73361;-68
2023/02/11 02:21:44;;;;;;;16.60;8.50;;;;;;;0.54;61.30;101819.82;107926;1246;60928;-67
2023/02/11 02:24:50;;;;;;;14.40;6.20;;;;;;;0.64;61.26;101811.39;108282;1240;60537;-68
2023/02/11 02:27:29;;;;;;;19.90;7.30;;;;;;;0.77;61.01;101805.31;108177;1238;65949;-68
2023/02/11 02:30:13;;;;;;;18.00;8.60;;;;;;;0.87;60.92;101803.41;108183;1241;62542;-69
2023/02/11 02:32:57;;;;;;;13.80;6.50;;;;;;;0.97;60.81;101801.34;108196;1241;64615;-68
2023/02/11 02:35:29;;;;;;;13.80;7.20;;;;;;;1.06;60.77;101801.35;108219;1243;60415;-67
2023/02/11 02:38:05;;;;;;;18.40;9.70;;;;;;;1.12;60.72;101801.78;108220;1239;60310;-67
2023/02/11 02:40:47;;;;;;;20.60;9.60;;;;;;;1.16;60.74;101802.21;108233;1240;74751;-67
2023/02/11 02:43:14;;;;;;;23.70;9.30;;;;;;;1.18;60.63;101801.84;108228;1238;62645;-66
2023/02/11 02:45:40;;;;;;;17.90;9.50;;;;;;;1.17;60.52;101800.64;108203;1242;72521;-67
2023/02/11 02:48:28;;;;;;;17.10;7.80;;;;;;;1.15;60.54;101799.47;108154;1238;60430;-68
2023/02/11 02:51:09;;;;;;;17.80;8.20;;;;;;;1.12;60.62;101799.17;108116;1237;60427;-68
2023/02/11 02:53:57;;;;;;;18.10;8.10;;;;;;;1.09;60.73;101802.33;108111;1238;65189;-67
2023/02/11 02:56:48;;;;;;;15.70;7.00;;;;;;;1.03;60.84;101800.54;108203;1242;61534;-67
2023/02/11 02:59:24;;;;;;;15.30;7.40;;;;;;;0.98;60.95;101798.91;108131;1239;64927;-68
2023/02/11 03:02:22;;;;;;;18.90;7.50;;;;;;;0.94;61.30;101797.77;108132;1240;60450;-69
2023/02/11 03:05:13;;;;;;;18.00;7.10;;;;;;;0.89;61.40;101795.42;108122;1238;60469;-69
2023/02/11 03:08:11;;;;;;;21.10;8.40;;;;;;;0.84;61.61;101796.36;108161;1239;66003;-66
2023/02/11 03:10:42;;;;;;;21.00;8.30;;;;;;;0.82;61.68;101802.11;107652;1241;62648;-67
2023/02/11 03:13:09;;;;;;;20.30;10.00;;;;;;;0.78;62.03;101801.33;107628;1242;74108;-67
2023/02/11 03:15:41;;;;;;;19.90;7.90;;;;;;;0.74;62.10;101797.05;108258;1238;60558;-65
2023/02/11 03:18:10;;;;;;;19.80;9.00;;;;;;;0.71;62.21;101795.38;108231;1238;61155;-66
2023/02/11 03:20:38;;;;;;;17.00;7.70;;;;;;;0.72;62.33;101792.95;108451;1241;72728;-66
2023/02/11 03:23:11;;;;;;;16.80;8.70;;;;;;;0.73;62.39;101792.59;108264;1240;71166;-65
2023/02/11 03:25:41;;;;;;;15.70;8.20;;;;;;;0.72;62.53;101790.88;108074;1240;73541;-66
2023/02/11 03:28:14;;;;;;;17.50;7.10;;;;;;;0.80;62.48;101786.61;108127;1242;62294;-66
2023/02/11 03:30:59;;;;;;;18.20;8.40;;;;;;;0.89;62.34;101784.36;108101;1242;59743;-66
2023/02/11 03:33:34;;;;;;;15.00;7.80;;;;;;;0.97;62.28;101783.71;108116;1239;65133;-65
2023/02/11 03:36:07;;;;;;;16.00;7.40;;;;;;;1.05;62.29;101787.73;108245;1238;62526;-66
2023/02/11 03:38:37;;;;;;;20.30;7.90;;;;;;;1.13;62.21;101788.27;108131;1242;65486;-68
2023/02/11 03:41:05;;;;;;;16.90;8.50;;;;;;;1.18;62.19;101783.86;108194;1238;60636;-64
2023/02/11 03:43:35;;;;;;;17.50;7.80;;;;;;;1.20;62.23;101775.68;108145;1242;62130;-65
2023/02/11 03:46:03;;;;;;;16.50;7.10;;;;;;;1.22;62.08;101773.06;108104;1240;74519;-67
2023/02/11 03:48:35;;;;;;;17.00;8.20;;;;;;;1.20;62.01;101773.27;107765;1241;71010;-67
2023/02/11 03:51:04;;;;;;;17.70;8.80;;;;;;;1.18;62.08;101770.89;107727;1242;73584;-67
2023/02/11 03:53:31;;;;;;;15.10;6.80;;;;;;;1.15;62.03;101765.60;107673;1239;60482;-64
2023/02/11 03:56:00;;;;;;;17.50;8.20;;;;;;;1.11;62.08;101772.05;107540;1238;60978;-66
2023/02/11 03:58:27;;;;;;;21.30;10.00;;;;;;;1.11;62.16;101768.08;107684;1238;73860;-68
2023/02/11 04:00:54;;;;;;;18.10;9.90;;;;;;;1.10;62.12;101761.52;107781;1242;70181;-67
2023/02/11 04:03:21;;;;;;;17.30;8.70;;;;;;;1.09;62.18;101756.72;107682;1243;73459;-65
2023/02/11 04:05:48;;;;;;;23.10;8.90;;;;;;;1.06;62.17;101750.02;107763;1241;60782;-66
2023/02/11 04:08:15;;;;;;;18.80;8.90;;;;;;;1.04;62.17;101744.54;107637;1243;61080;-66
2023/02/11 04:10:42;;;;;;;24.20;11.00;;;;;;;0.99;62.35;101744.80;108047;1242;74871;-67
2023/02/11 04:13:09;;;;;;;17.00;8.80;;;;;;;0.96;62.43;101741.08;108227;1238;71310;-66
2023/02/11 04:15:37;;;;;;;20.40;9.00;;;;;;;0.94;62.45;101740.04;107968;1242;73386;-66
2023/02/11 04:18:06;;;;;;;20.70;8.60;;;;;;;0.92;62.57;101741.64;107807;1240;60522;-66
2023/02/11 04:20:33;;;;;;;20.00;9.50;;;;;;;0.89;62.69;101739.97;107744;1240;61273;-68
2023/02/11 04:23:00;;;;;;;23.00;9.70;;;;;;;0.88;62.75;101736.70;108251;1241;74562;-67
2023/02/11 04:25:28;;;;;;;17.20;7.60;;;;;;;0.95;62.71;101739.70;108152;1238;71262;-67
2023/02/11 04:27:54;;;;;;;19.90;7.90;;;;;;;1.04;62.62;101739.52;108103;1238;73549;-69
2023/02/11 04:30:21;;;;;;;18.80;9.10;;;;;;;1.14;62.45;101741.06;108160;1239;61669;-68
2023/02/11 04:32:48;;;;;;;22.70;8.90;;;;;;;1.23;62.44;101741.75;108170;1238;60939;-67
2023/02/11 04:35:16;;;;;;;21.60;7.50;;;;;;;1.34;62.30;101736.02;108171;1241;74726;-67
2023/02/11 04:37:43;;;;;;;24.40;10.50;;;;;;;1.40;62.22;101738.49;108200;1238;71205;-68
2023/02/11 04:40:10;;;;;;;16.50;8.30;;;;;;;1.43;62.09;101737.38;108165;1242;73591;-67
2023/02/11 04:42:37;;;;;;;18.80;8.70;;;;;;;1.43;61.96;101729.25;108171;1238;60594;-68
2023/02/11 04:45:05;;;;;;;20.30;9.00;;;;;;;1.42;61.94;101721.66;108130;1238;61046;-68
2023/02/11 04:47:32;;;;;;;18.80;8.50;;;;;;;1.42;61.89;101722.89;108229;1240;74658;-66
2023/02/11 04:49:59;;;;;;;15.90;7.40;;;;;;;1.41;61.80;101721.34;108156;1238;71061;-65
2023/02/11 04:52:26;;;;;;;20.50;9.00;;;;;;;1.38;61.73;101715.52;108135;1238;73311;-66
2023/02/11 04:54:53;;;;;;;15.90;7.60;;;;;;;1.36;61.66;101709.18;108158;1237;60584;-67
2023/02/11 04:57:20;;;;;;;15.60;7.90;;;;;;;1.32;61.78;101699.39;108201;1238;61373;-68
2023/02/11 04:59:47;;;;;;;20.30;8.80;;;;;;;1.29;61.75;101698.25;108197;1241;74744;-68
2023/02/11 05:02:14;;;;;;;15.90;7.30;;;;;;;1.25;61.76;101697.98;108178;1241;71126;-67
2023/02/11 05:04:42;;;;;;;17.30;8.10;;;;;;;1.23;61.70;101695.95;108094;1242;73594;-67
2023/02/11 05:07:09;;;;;;;19.50;8.60;;;;;;;1.19;61.74;101694.65;108149;1242;60442;-65
2023/02/11 05:09:39;;;;;;;19.70;9.90;;;;;;;1.15;61.83;101689.71;108124;1238;61033;-67
2023/02/11 05:12:06;;;;;;;19.00;9.80;;;;;;;1.13;61.86;101690.45;107759;1241;72605;-68
2023/02/11 05:14:33;;;;;;;17.90;8.00;;;;;;;1.09;61.91;101686.38;107625;1241;70891;-68
2023/02/11 05:17:01;;;;;;;19.20;7.00;;;;;;;1.05;62.00;101684.55;107662;1241;73674;-68
2023/02/11 05:19:30;;;;;;;18.40;8.20;;;;;;;1.09;61.95;101684.81;107852;1238;61879;-66
2023/02/11 05:21:58;;;;;;;15.00;7.10;;;;;;;1.18;61.77;101686.53;108320;1237;61014;-66
2023/02/11 05:24:31;;;;;;;20.90;9.60;;;;;;;1.26;61.64;101689.14;108186;1242;74544;-68
2023/02/11 05:26:58;;;;;;;19.50;8.20;;;;;;;1.34;61.43;101685.88;108145;1241;71005;-68
2023/02/11 05:29:25;;;;;;;17.10;6.20;;;;;;;1.40;61.40;101685.74;108227;1242;72356;-71
2023/02/11 05:31:52;;;;;;;16.40;7.00;;;;;;;1.43;61.29;101688.77;108170;1242;60432;-69
2023/02/11 05:34:19;;;;;;;18.10;7.80;;;;;;;1.44;61.18;101694.13;108203;1239;61025;-66
2023/02/11 05:36:46;;;;;;;15.10;7.00;;;;;;;1.41;61.17;101696.78;108150;1243;73380;-67
2023/02/11 05:39:13;;;;;;;22.30;10.40;;;;;;;1.39;61.12;101693.72;108265;1242;71037;-68
2023/02/11 05:41:40;;;;;;;18.60;9.00;;;;;;;1.36;60.94;101689.81;108223;1240;73679;-69
2023/02/11 05:44:06;;;;;;;18.80;8.50;;;;;;;1.32;61.04;101689.39;108174;1241;60357;-68
2023/02/11 05:46:33;;;;;;;18.70;9.40;;;;;;;1.28;61.16;101687.20;108010;1244;60456;-68
2023/02/11 05:49:00;;;;;;;21.80;8.90;;;;;;;1.25;61.08;101688.80;108199;1241;73563;-68
2023/02/11 05:51:27;;;;;;;19.60;10.00;;;;;;;1.22;61.11;101691.30;108193;1240;71545;-69
2023/02/11 05:53:53;;;;;;;16.80;7.50;;;;;;;1.19;61.17;101687.05;108352;1241;73531;-69
2023/02/11 05:56:20;;;;;;;18.90;8.70;;;;;;;1.16;61.16;101687.27;108195;1241;60491;-69
2023/02/11 05:58:47;;;;;;;20.40;8.80;;;;;;;1.14;61.15;101684.90;108152;1241;61024;-68
2023/02/11 06:01:14;;;;;;;24.80;10.90;;;;;;;1.12;61.07;101683.36;108198;1238;73301;-68
2023/02/11 06:03:40;;;;;;;17.40;9.50;;;;;;;1.11;61.25;101680.46;108250;1241;71063;-68
2023/02/11 06:06:11;;;;;;;19.80;8.40;;;;;;;1.09;61.18;101672.71;108126;1239;74203;-68
2023/02/11 06:08:39;;;;;;;18.40;8.50;;;;;;;1.08;61.06;101669.64;108155;1238;60932;-69
2023/02/11 06:11:07;;;;;;;15.70;7.60;;;;;;;1.06;61.24;101661.54;108244;1241;61096;-68
2023/02/11 06:13:35;;;;;;;17.30;8.20;;;;;;;1.05;61.17;101657.23;108271;1242;74295;-68
2023/02/11 06:16:02;;;;;;;16.10;5.40;;;;;;;1.10;61.06;101649.87;108159;1242;71111;-68
2023/02/11 06:18:29;;;;;;;16.50;8.40;;;;;;;1.21;60.92;101647.59;108341;1240;73689;-70
2023/02/11 06:20:56;;;;;;;13.10;6.10;;;;;;;1.30;60.83;101636.33;108293;1238;61735;-67
2023/02/11 06:23:23;;;;;;;16.40;8.20;;;;;;;1.36;60.66;101630.15;108192;1240;60488;-66
2023/02/11 06:25:52;;;;;;;15.60;7.50;;;;;;;1.37;60.59;101625.28;107915;1241;74550;-68
2023/02/11 06:28:19;;;;;;;15.90;6.90;;;;;;;1.38;60.56;101630.80;107774;1242;70942;-67
2023/02/11 06:30:47;;;;;;;15.80;7.90;;;;;;;1.37;60.53;101631.01;107853;1243;73571;-68
2023/02/11 06:33:14;;;;;;;16.50;7.30;;;;;;;1.35;60.53;101626.89;108252;1242;60407;-68
2023/02/11 06:35:41;;;;;;;17.10;8.10;;;;;;;1.33;60.46;101620.54;108180;1242;60531;-68
2023/02/11 06:38:08;;;;;;;19.60;8.60;;;;;;;1.31;60.46;101616.08;108161;1240;73130;-67
2023/02/11 06:40:35;;;;;;;20.90;9.10;;;;;;;1.27;60.33;101617.03;108251;1242;70129;-66
2023/02/11 06:43:02;;;;;;;15.40;7.50;;;;;;;1.24;60.44;101617.08;108073;1241;73666;-65
2023/02/11 06:45:30;;;;;;;18.20;8.20;;;;;;;1.23;60.45;101612.45;108258;1242;61685;-67
2023/02/11 06:47:57;;;;;;;13.80;7.20;;;;;;;1.25;60.49;101612.23;108211;1242;60663;-66
2023/02/11 06:50:24;;;;;;;18.10;7.10;;;;;;;1.28;60.46;101609.23;108160;1241;74628;-67
2023/02/11 06:52:52;;;;;;;16.20;7.70;;;;;;;1.30;60.24;101604.87;108352;1241;69849;-67
2023/02/11 06:55:19;;;;;;;18.80;8.50;;;;;;;1.32;60.13;101599.13;108129;1242;73558;-67
2023/02/11 06:57:47;;;;;;;16.50;6.80;;;;;;;1.34;60.11;101590.95;108223;1242;60455;-68
2023/02/11 07:00:15;;;;;;;23.10;9.80;;;;;;;1.38;60.03;101586.37;108155;1238;61137;-70
2023/02/11 07:02:42;;;;;;;19.70;8.10;;;;;;;1.40;59.86;101578.71;108254;1240;73637;-67
2023/02/11 07:05:09;;;;;;;16.70;7.80;;;;;;;1.45;59.61;101575.30;108338;1241;71586;-71
2023/02/11 07:07:36;;;;;;;13.60;5.60;;;;;;;1.58;59.42;101576.40;108247;1239;72605;-69
2023/02/11 07:10:03;;;;;;;14.60;8.10;;;;;;;1.69;59.20;101568.20;108181;1242;61912;-69
2023/02/11 07:12:30;;;;;;;14.40;6.80;;;;;;;1.77;59.05;101566.60;108214;1238;60432;-69
2023/02/11 07:14:57;;;;;;;17.60;6.30;;;;;;;1.83;59.07;101563.52;108189;1241;74526;-70
2023/02/11 07:17:24;;;;;;;17.30;7.90;;;;;;;1.87;58.57;101562.02;107679;1243;70018;-67
2023/02/11 07:19:52;;;;;;;15.00;6.90;;;;;;;1.90;58.43;101557.13;107960;1243;72537;-66
2023/02/11 07:22:19;;;;;;;19.40;8.20;;;;;;;1.94;58.35;101550.29;108186;1240;60411;-68
2023/02/11 07:24:46;;;;;;;17.10;6.90;;;;;;;1.97;58.10;101548.64;107721;1238;61158;-66
2023/02/11 07:27:13;;;;;;;17.90;7.50;;;;;;;1.96;58.03;101547.80;107948;1238;74772;-70
2023/02/11 07:29:41;;;;;;;14.00;6.10;;;;;;;1.95;58.02;101549.20;108177;1239;70414;-66
2023/02/11 07:32:07;;;;;;;15.60;6.50;;;;;;;1.95;58.05;101555.25;108079;1238;72531;-66
2023/02/11 07:34:34;;;;;;;16.50;7.00;;;;;;;1.96;58.14;101555.25;108130;1242;60478;-70
2023/02/11 07:37:01;;;;;;;15.60;6.70;;;;;;;1.96;58.10;101553.16;108156;1240;61201;-69
2023/02/11 07:39:28;;;;;;;16.30;7.00;;;;;;;1.95;58.17;101553.19;108144;1242;74586;-71
2023/02/11 07:41:55;;;;;;;18.40;7.90;;;;;;;1.96;58.34;101551.63;107718;1238;70904;-65
2023/02/11 07:44:24;;;;;;;17.80;7.20;;;;;;;1.96;58.53;101548.30;108253;1242;72596;-65
2023/02/11 07:46:51;;;;;;;20.20;8.60;;;;;;;1.98;58.63;101552.92;107980;1242;60567;-64
2023/02/11 07:49:19;;;;;;;16.60;8.10;;;;;;;1.99;58.78;101554.45;107639;1243;61010;-65
2023/02/11 07:51:47;;;;;;;20.80;8.00;;;;;;;1.98;59.02;101558.45;107894;1242;74723;-68
2023/02/11 07:54:14;;;;;;;15.70;6.80;;;;;;;1.96;59.21;101560.77;108432;1240;69367;-67
2023/02/11 07:56:41;;;;;;;16.30;7.00;;;;;;;1.97;59.21;101558.48;108268;1239;177401;-66
2023/02/11 08:01:27;;;;;;;19.10;8.10;;;;;;;1.92;59.51;101557.74;102505;1295;601186;-63
2023/02/11 08:03:56;;;;;;;16.60;8.30;;;;;;;2.07;59.09;101549.77;104876;1270;59348;-64
2023/02/11 08:06:26;;;;;;;16.70;9.00;;;;;;;2.08;59.21;101543.36;104974;1265;61352;-65
2023/02/11 08:08:55;;;;;;;17.70;7.60;;;;;;;2.06;59.17;101537.14;104962;1264;73176;-63
2023/02/11 08:11:26;;;;;;;14.30;7.30;;;;;;;2.04;59.29;101530.98;104783;1270;70226;-68
2023/02/11 08:13:54;;;;;;;16.70;7.60;;;;;;;2.06;59.43;101527.45;104660;1268;315519;-65
2023/02/11 08:16:27;;;;;;;18.80;9.10;;;;;;;2.08;59.40;101523.61;105314;1264;59424;-64
2023/02/11 08:18:57;;;;;;;17.00;8.40;;;;;;;2.08;59.48;101519.11;104835;1266;60279;-69
2023/02/11 08:21:27;;;;;;;18.00;9.00;;;;;;;2.08;59.55;101509.23;105272;1266;72294;-68
2023/02/11 08:23:55;;;;;;;17.60;8.30;;;;;;;2.10;59.69;101507.13;105260;1264;71562;-68
2023/02/11 08:26:27;;;;;;;16.50;6.80;;;;;;;2.10;59.74;101501.92;104848;1266;71543;-67
2023/02/11 08:28:56;;;;;;;18.00;7.60;;;;;;;2.11;59.85;101503.09;105101;1266;59574;-67
2023/02/11 08:31:35;;;;;;;25.10;8.50;;;;;;;2.13;60.00;101498.90;104971;1263;61075;-66
2023/02/11 08:34:04;;;;;;;15.70;7.20;;;;;;;2.22;59.97;101494.32;105126;1266;73869;-66
2023/02/11 08:36:34;;;;;;;13.80;6.00;;;;;;;2.36;59.78;101494.63;105058;1266;71127;-66
2023/02/11 08:39:06;;;;;;;19.20;7.00;;;;;;;2.47;59.78;101488.07;105078;1264;73368;-67
2023/02/11 08:41:48;;;;;;;16.20;7.00;;;;;;;2.58;59.59;101482.55;104871;1261;59838;-66
2023/02/11 08:44:20;;;;;;;22.50;8.90;;;;;;;2.66;59.56;101476.97;104894;1264;61284;-67
2023/02/11 08:46:48;;;;;;;16.10;8.40;;;;;;;2.68;59.35;101468.41;104949;1266;74054;-68
2023/02/11 08:49:18;;;;;;;17.80;6.90;;;;;;;2.68;59.35;101464.95;104948;1261;71013;-63
2023/02/11 08:51:47;;;;;;;33.80;22.50;;;;;;;2.68;59.46;101467.71;105803;1257;73649;-71
2023/02/11 08:54:15;;;;;;;22.00;10.30;;;;;;;2.68;59.48;101464.77;105662;1255;59726;-73
2023/02/11 08:56:46;;;;;;;26.10;8.90;;;;;;;2.69;59.62;101463.89;105723;1257;61836;-69
2023/02/11 08:59:16;;;;;;;24.10;11.10;;;;;;;2.71;59.69;101467.29;105655;1256;73023;-70
2023/02/11 09:01:46;;;;;;;19.70;9.50;;;;;;;2.75;59.61;101464.73;105820;1254;70339;-70
2023/02/11 09:04:14;;;;;;;20.10;9.20;;;;;;;2.77;59.66;101467.77;105572;1256;72565;-69
2023/02/11 09:06:43;;;;;;;24.80;9.10;;;;;;;2.77;59.57;101460.88;105826;1257;59617;-70
2023/02/11 09:09:12;;;;;;;23.40;9.90;;;;;;;2.76;59.70;101460.38;105572;1252;61336;-70
2023/02/11 09:11:41;;;;;;;21.00;10.00;;;;;;;2.76;59.78;101460.55;105753;1256;73939;-70
2023/02/11 09:14:18;;;;;;;21.30;10.30;;;;;;;2.75;59.84;101454.83;105571;1252;69648;-72
2023/02/11 09:16:46;;;;;;;19.40;9.80;;;;;;;2.76;59.69;101453.10;105739;1257;72398;-66
2023/02/11 09:19:17;;;;;;;22.90;9.20;;;;;;;2.81;59.79;101451.58;105691;1250;62270;-71
2023/02/11 09:21:46;;;;;;;20.70;10.40;;;;;;;2.89;59.77;101445.77;105594;1251;61137;-69
2023/02/11 09:24:14;;;;;;;18.00;9.40;;;;;;;2.96;59.76;101447.80;105587;1264;74017;-67
2023/02/11 09:26:43;;;;;;;24.30;10.00;;;;;;;3.02;59.58;101440.34;105834;1251;70179;-70
2023/02/11 09:29:11;;;;;;;19.10;9.50;;;;;;;3.04;59.54;101434.02;105879;1255;73478;-69
2023/02/11 09:31:41;;;;;;;35.50;24.60;;;;;;;3.05;59.57;101428.29;105666;1252;60250;-69
2023/02/11 09:34:09;;;;;;;21.90;9.30;;;;;;;3.04;59.72;101424.87;105406;1257;61358;-68
2023/02/11 09:36:39;;;;;;;33.40;23.30;;;;;;;3.02;60.02;101416.94;105724;1255;73858;-68
2023/02/11 09:39:11;;;;;;;24.20;11.70;;;;;;;3.02;60.06;101413.14;105635;1251;71473;-68
2023/02/11 09:41:48;;;;;;;22.50;10.30;;;;;;;2.97;60.08;101394.38;105627;1251;72834;-69
2023/02/11 09:44:43;;;;;;;23.40;10.70;;;;;;;2.94;60.37;101390.16;105725;1256;59560;-66
2023/02/11 09:47:28;;;;;;;22.10;10.50;;;;;;;2.93;60.42;101389.83;105559;1252;59832;-67
2023/02/11 09:50:04;;;;;;;26.90;13.10;;;;;;;2.92;60.59;101387.99;105940;1254;65407;-73
2023/02/11 09:52:51;;;;;;;24.70;13.40;;;;;;;2.92;60.75;101386.23;105625;1256;62674;-68
2023/02/11 09:55:22;;;;;;;19.80;9.60;;;;;;;2.93;60.87;101389.00;105745;1251;65108;-70
2023/02/11 09:57:52;;;;;;;19.80;9.40;;;;;;;2.95;61.07;101381.12;105631;1257;61181;-67
2023/02/11 10:00:31;;;;;;;16.10;8.40;;;;;;;3.02;61.10;101373.60;105577;1257;61120;-67
2023/02/11 10:02:59;;;;;;;20.20;10.00;;;;;;;3.10;61.36;101371.43;105504;1258;64342;-67
2023/02/11 10:06:06;;;;;;;22.50;10.30;;;;;;;3.12;62.11;101366.70;105615;1257;71330;-67
2023/02/11 10:08:49;;;;;;;28.00;11.70;;;;;;;3.13;62.66;101352.95;105514;1257;65373;-67
2023/02/11 10:11:32;;;;;;;20.60;9.90;;;;;;;3.18;62.71;101345.69;105639;1257;59668;-70
2023/02/11 10:14:36;;;;;;;23.00;11.20;;;;;;;3.17;62.61;101334.27;105484;1251;59723;-67
2023/02/11 10:17:04;;;;;;;23.20;9.80;;;;;;;3.16;62.49;101332.40;105392;1256;65233;-68
2023/02/11 10:20:00;;;;;;;22.60;12.70;;;;;;;3.14;62.43;101325.02;105581;1257;70082;-71
2023/02/11 10:22:43;;;;;;;24.30;10.80;;;;;;;3.09;62.55;101324.84;105519;1257;65063;-69
2023/02/11 10:25:57;;;;;;;28.50;12.90;;;;;;;3.05;62.75;101318.88;105695;1264;59926;-69
2023/02/11 10:28:31;;;;;;;21.20;11.00;;;;;;;3.09;62.91;101309.06;105623;1257;59624;-70
2023/02/11 10:31:08;;;;;;;18.90;10.00;;;;;;;3.19;62.76;101306.28;105632;1257;73466;-69
2023/02/11 10:33:58;;;;;;;19.10;9.40;;;;;;;3.29;62.67;101297.65;105471;1258;61928;-68
2023/02/11 10:36:29;;;;;;;22.90;10.50;;;;;;;3.37;62.48;101286.60;105719;1258;65098;-68
2023/02/11 10:39:01;;;;;;;26.60;12.20;;;;;;;3.39;62.24;101283.75;105666;1265;59957;-68
2023/02/11 10:41:36;;;;;;;22.10;11.60;;;;;;;3.38;62.09;101285.34;105516;1257;60076;-64
2023/02/11 10:44:05;;;;;;;23.90;11.70;;;;;;;3.37;62.05;101280.20;105524;1251;73020;-69
2023/02/11 10:46:35;;;;;;;27.30;13.20;;;;;;;3.35;62.07;101273.48;105497;1257;70097;-69
2023/02/11 10:49:04;;;;;;;23.50;12.30;;;;;;;3.34;61.89;101266.72;105813;1256;73501;-69
2023/02/11 10:51:33;;;;;;;27.20;13.20;;;;;;;3.34;61.88;101267.07;105515;1257;60565;-68
2023/02/11 10:54:05;;;;;;;27.10;13.60;;;;;;;3.33;61.80;101268.68;105805;1256;59512;-68
2023/02/11 10:56:37;;;;;;;22.40;13.60;;;;;;;3.32;61.86;101261.61;105537;1255;73886;-70
2023/02/11 10:59:30;;;;;;;38.30;26.00;;;;;;;3.30;61.83;101261.00;105712;1252;71060;-69
2023/02/11 11:02:00;;;;;;;20.60;11.30;;;;;;;3.36;61.77;101254.20;105441;1257;65051;-69
2023/02/11 11:04:28;;;;;;;25.20;11.20;;;;;;;3.44;61.56;101250.45;105647;1253;60836;-68
2023/02/11 11:07:17;;;;;;;25.50;12.00;;;;;;;3.48;61.54;101245.43;105720;1251;61233;-68
2023/02/11 11:09:45;;;;;;;37.70;27.00;;;;;;;3.48;61.49;101244.40;105746;1256;65410;-69
2023/02/11 11:12:29;;;;;;;24.10;12.20;;;;;;;3.45;61.47;101242.75;105677;1257;71290;-68
2023/02/11 11:15:21;;;;;;;32.10;13.20;;;;;;;3.43;61.59;101238.17;105698;1257;65272;-69
2023/02/11 11:18:16;;;;;;;24.80;13.50;;;;;;;3.41;61.71;101229.56;105500;1256;59691;-69
2023/02/11 11:21:01;;;;;;;23.40;13.30;;;;;;;3.42;61.90;101223.77;105709;1257;59658;-67
2023/02/11 11:23:30;;;;;;;26.10;11.90;;;;;;;3.46;61.82;101213.09;105578;1256;65652;-68
2023/02/11 11:26:12;;;;;;;41.70;27.10;;;;;;;3.47;61.92;101198.97;105428;1251;71326;-69
2023/02/11 11:28:57;;;;;;;23.70;11.30;;;;;;;3.49;61.88;101191.61;105561;1266;65154;-69
2023/02/11 11:31:44;;;;;;;21.10;10.10;;;;;;;3.60;61.80;101191.73;105570;1256;59621;-69
2023/02/11 11:34:21;;;;;;;23.50;10.30;;;;;;;3.72;61.53;101182.80;105588;1257;59819;-67
2023/02/11 11:36:49;;;;;;;36.70;25.20;;;;;;;3.79;61.24;101175.89;105555;1256;65772;-69
2023/02/11 11:39:23;;;;;;;38.70;26.50;;;;;;;3.82;61.10;101171.98;105662;1264;70925;-68